createdAt,value
2023-02-25T00:00:56.686Z,6.28
2023-02-25T00:03:24.327Z,5.95
2023-02-25T00:05:51.939Z,5.72
2023-02-25T00:08:19.585Z,6.00
2023-02-25T00:10:47.197Z,6.07
2023-02-25T00:13:18.431Z,6.22
2023-02-25T00:15:46.337Z,6.39
2023-02-25T00:18:13.971Z,6.12
2023-02-25T00:20:42.110Z,6.22
2023-02-25T00:23:09.760Z,6.29
2023-02-25T00:25:37.505Z,5.82
2023-02-25T00:28:05.364Z,6.16
2023-02-25T00:30:34.848Z,6.60
2023-02-25T00:33:02.939Z,6.35
2023-02-25T00:35:30.701Z,6.42
2023-02-25T00:38:13.718Z,6.13
2023-02-25T00:40:43.439Z,6.15
2023-02-25T00:43:11.134Z,6.04
2023-02-25T00:45:41.203Z,6.35
2023-02-25T00:48:09.308Z,6.23
2023-02-25T00:50:39.699Z,6.11
2023-02-25T00:53:07.437Z,6.23
2023-02-25T00:55:35.064Z,6.28
2023-02-25T00:58:03.023Z,6.33
2023-02-25T01:00:35.909Z,6.01
2023-02-25T01:03:07.187Z,6.03
2023-02-25T01:05:34.902Z,6.26
2023-02-25T01:08:02.579Z,6.24
2023-02-25T01:10:30.321Z,6.33
2023-02-25T01:12:57.951Z,6.09
2023-02-25T01:15:25.567Z,6.42
2023-02-25T01:17:53.200Z,6.16
2023-02-25T01:20:24.085Z,6.24
2023-02-25T01:22:51.694Z,6.23
2023-02-25T01:25:19.324Z,6.14
2023-02-25T01:27:46.975Z,6.05
2023-02-25T01:30:14.735Z,6.24
2023-02-25T01:32:42.519Z,5.87
2023-02-25T01:35:10.426Z,5.97
2023-02-25T01:37:39.416Z,5.89
2023-02-25T01:40:08.107Z,6.35
2023-02-25T01:42:35.747Z,6.06
2023-02-25T01:45:30.119Z,6.35
2023-02-25T01:48:07.773Z,6.09
2023-02-25T01:50:42.930Z,6.06
2023-02-25T01:53:14.197Z,6.20
2023-02-25T01:55:43.025Z,6.12
2023-02-25T01:58:13.216Z,5.82
2023-02-25T02:00:41.492Z,6.21
2023-02-25T02:03:17.030Z,6.24
2023-02-25T02:05:55.968Z,6.43
2023-02-25T02:08:27.189Z,6.20
2023-02-25T02:10:55.808Z,5.99
2023-02-25T02:13:23.611Z,5.76
2023-02-25T02:16:04.054Z,5.98
2023-02-25T02:18:35.225Z,5.83
2023-02-25T02:21:18.735Z,5.75
2023-02-25T02:24:22.533Z,6.07
2023-02-25T02:27:03.256Z,5.98
2023-02-25T02:30:05.410Z,6.10
2023-02-25T02:32:40.534Z,6.28
2023-02-25T02:35:18.337Z,6.00
2023-02-25T02:37:56.843Z,6.00
2023-02-25T02:40:37.271Z,5.85
2023-02-25T02:43:19.300Z,6.09
2023-02-25T02:45:51.970Z,6.21
2023-02-25T02:48:27.207Z,5.73
2023-02-25T02:50:58.492Z,5.71
2023-02-25T02:53:32.021Z,5.60
2023-02-25T02:56:03.498Z,5.62
2023-02-25T02:58:36.303Z,5.61
2023-02-25T03:01:08.550Z,5.84
2023-02-25T03:03:42.035Z,5.67
2023-02-25T03:06:12.508Z,5.71
2023-02-25T03:08:45.856Z,5.68
2023-02-25T03:11:14.401Z,5.77
2023-02-25T03:13:42.610Z,6.14
2023-02-25T03:16:14.704Z,5.73
2023-02-25T03:18:49.920Z,5.67
2023-02-25T03:21:23.098Z,5.44
2023-02-25T03:23:51.683Z,5.08
2023-02-25T03:26:24.774Z,5.24
2023-02-25T03:28:53.041Z,5.19
2023-02-25T03:31:25.689Z,5.12
2023-02-25T03:33:59.102Z,5.08
2023-02-25T03:36:32.343Z,5.00
2023-02-25T03:39:06.322Z,5.18
2023-02-25T03:41:37.604Z,5.65
2023-02-25T03:44:10.838Z,5.05
2023-02-25T03:46:41.517Z,5.09
2023-02-25T03:49:16.239Z,5.26
2023-02-25T03:51:47.631Z,5.30
2023-02-25T03:54:16.618Z,4.98
2023-02-25T03:56:46.877Z,5.42
2023-02-25T03:59:14.744Z,5.49
2023-02-25T04:01:44.011Z,5.17
2023-02-25T04:04:13.257Z,5.44
2023-02-25T04:06:41.264Z,5.36
2023-02-25T04:09:09.105Z,5.73
2023-02-25T04:11:36.724Z,5.18
2023-02-25T04:14:04.356Z,5.17
2023-02-25T04:16:32.176Z,5.22
2023-02-25T04:19:00.156Z,5.48
2023-02-25T04:21:32.204Z,5.22
2023-02-25T04:24:00.220Z,4.94
2023-02-25T04:26:28.099Z,5.33
2023-02-25T04:28:56.048Z,5.22
2023-02-25T04:31:23.976Z,5.50
2023-02-25T04:33:51.882Z,5.24
2023-02-25T04:36:29.679Z,5.27
2023-02-25T04:38:58.682Z,5.13
2023-02-25T04:41:30.818Z,5.21
2023-02-25T04:43:58.511Z,5.06
2023-02-25T04:46:26.795Z,5.38
2023-02-25T04:48:54.475Z,5.14
2023-02-25T04:51:22.169Z,5.02
2023-02-25T04:53:51.176Z,4.81
2023-02-25T04:56:18.883Z,4.84
2023-02-25T04:58:46.907Z,5.01
2023-02-25T05:01:15.375Z,4.79
2023-02-25T05:03:43.396Z,5.11
2023-02-25T05:06:11.279Z,5.01
2023-02-25T05:08:38.882Z,4.90
2023-02-25T05:11:07.924Z,5.40
2023-02-25T05:13:35.519Z,5.21
2023-02-25T05:16:08.496Z,4.78
2023-02-25T05:18:39.188Z,5.26
2023-02-25T05:21:12.139Z,4.82
2023-02-25T05:23:39.923Z,4.62
2023-02-25T05:26:10.039Z,5.30
2023-02-25T05:28:37.905Z,5.25
2023-02-25T05:31:06.300Z,5.25
2023-02-25T05:33:34.073Z,5.16
2023-02-25T05:36:01.735Z,5.01
2023-02-25T05:38:29.437Z,5.09
2023-02-25T05:40:57.105Z,5.01
2023-02-25T05:43:26.158Z,4.93
2023-02-25T05:45:55.160Z,5.02
2023-02-25T05:48:23.049Z,5.22
2023-02-25T05:50:51.285Z,5.60
2023-02-25T05:53:19.427Z,5.04
2023-02-25T05:55:47.670Z,5.09
2023-02-25T05:58:15.297Z,5.17
2023-02-25T06:00:44.718Z,5.41
2023-02-25T06:03:12.696Z,5.10
2023-02-25T06:05:41.370Z,5.28
2023-02-25T06:08:09.340Z,4.96
2023-02-25T06:10:39.248Z,4.83
2023-02-25T06:13:07.327Z,4.99
2023-02-25T06:15:37.322Z,4.97
2023-02-25T06:18:07.148Z,4.84
2023-02-25T06:20:35.897Z,5.33
2023-02-25T06:23:04.010Z,5.01
2023-02-25T06:25:32.310Z,5.14
2023-02-25T06:28:00.484Z,4.99
2023-02-25T06:30:28.296Z,4.84
2023-02-25T06:32:56.000Z,5.13
2023-02-25T06:35:25.517Z,5.24
2023-02-25T06:37:56.374Z,5.21
2023-02-25T06:40:24.240Z,4.77
2023-02-25T06:42:52.282Z,4.70
2023-02-25T06:45:20.049Z,4.80
2023-02-25T06:47:47.634Z,4.74
2023-02-25T06:50:15.322Z,4.70
2023-02-25T06:52:44.638Z,4.85
2023-02-25T06:55:12.530Z,4.51
2023-02-25T06:57:42.778Z,4.76
2023-02-25T07:00:11.940Z,4.72
2023-02-25T07:02:40.038Z,4.90
2023-02-25T07:05:07.961Z,4.91
2023-02-25T07:07:35.788Z,5.05
2023-02-25T07:10:05.839Z,4.73
2023-02-25T07:12:33.655Z,5.04
2023-02-25T07:15:01.255Z,4.90
2023-02-25T07:17:28.915Z,4.82
2023-02-25T07:19:57.065Z,4.95
2023-02-25T07:22:24.664Z,4.66
2023-02-25T07:24:52.352Z,4.96
2023-02-25T07:27:21.417Z,4.85
2023-02-25T07:29:49.007Z,4.91
2023-02-25T07:32:16.762Z,4.36
2023-02-25T07:34:44.552Z,4.47
2023-02-25T07:37:12.671Z,4.69
2023-02-25T07:39:40.348Z,5.11
2023-02-25T07:42:07.962Z,4.48
2023-02-25T07:44:36.977Z,4.79
2023-02-25T07:47:04.595Z,4.61
2023-02-25T07:49:32.249Z,4.64
2023-02-25T07:51:59.900Z,5.42
2023-02-25T07:54:27.507Z,5.10
2023-02-25T07:56:55.117Z,5.15
2023-02-25T07:59:23.129Z,5.14
2023-02-25T08:01:52.082Z,5.16
2023-02-25T08:04:20.009Z,5.34
2023-02-25T08:06:47.876Z,5.49
2023-02-25T08:09:15.960Z,5.80
2023-02-25T08:11:44.109Z,5.38
2023-02-25T08:14:11.780Z,5.54
2023-02-25T08:16:39.478Z,4.96
2023-02-25T08:19:08.442Z,5.08
2023-02-25T08:21:37.373Z,4.89
2023-02-25T08:24:05.544Z,4.49
2023-02-25T08:26:33.369Z,5.15
2023-02-25T08:29:01.634Z,5.24
2023-02-25T08:31:29.639Z,4.93
2023-02-25T08:33:59.361Z,5.43
2023-02-25T08:36:30.406Z,4.95
2023-02-25T08:38:59.587Z,5.17
2023-02-25T08:41:28.523Z,5.30
2023-02-25T08:43:58.238Z,4.81
2023-02-25T08:46:28.216Z,4.92
2023-02-25T08:48:56.530Z,5.04
2023-02-25T08:51:33.759Z,5.22
2023-02-25T08:54:04.445Z,5.15
2023-02-25T08:56:32.068Z,5.08
2023-02-25T08:59:00.203Z,5.10
2023-02-25T09:01:40.940Z,5.44
2023-02-25T09:04:08.583Z,5.02
2023-02-25T09:06:36.214Z,4.89
2023-02-25T09:09:06.161Z,5.28
2023-02-25T09:11:34.004Z,4.82
2023-02-25T09:14:01.717Z,4.73
2023-02-25T09:16:30.092Z,4.96
2023-02-25T09:18:58.033Z,4.67
2023-02-25T09:21:25.920Z,4.54
2023-02-25T09:23:54.238Z,4.88
2023-02-25T09:26:23.594Z,4.67
2023-02-25T09:28:51.276Z,4.94
2023-02-25T09:31:19.472Z,5.09
2023-02-25T09:33:47.204Z,5.30
2023-02-25T09:36:17.055Z,4.99
2023-02-25T09:38:45.980Z,5.80
2023-02-25T09:41:25.441Z,5.44
2023-02-25T09:44:00.958Z,5.14
2023-02-25T09:46:31.573Z,4.99
2023-02-25T09:49:03.302Z,5.48
2023-02-25T09:51:35.947Z,5.27
2023-02-25T09:54:15.320Z,5.67
2023-02-25T09:56:44.692Z,5.50
2023-02-25T09:59:16.214Z,5.58
2023-02-25T10:01:50.232Z,5.29
2023-02-25T10:04:25.644Z,5.55
2023-02-25T10:06:55.953Z,5.46
2023-02-25T10:09:35.468Z,5.69
2023-02-25T10:12:18.364Z,5.99
2023-02-25T10:15:05.971Z,5.89
2023-02-25T10:17:45.738Z,5.69
2023-02-25T10:20:34.808Z,6.10
2023-02-25T10:23:10.710Z,5.86
2023-02-25T10:25:43.997Z,6.10
2023-02-25T10:28:18.112Z,6.33
2023-02-25T10:30:53.472Z,6.13
2023-02-25T10:33:24.927Z,5.95
2023-02-25T10:35:57.983Z,5.81
2023-02-25T10:38:25.602Z,5.82
2023-02-25T10:40:56.099Z,5.41
2023-02-25T10:43:26.762Z,5.45
2023-02-25T10:46:01.116Z,6.10
2023-02-25T10:48:29.637Z,6.05
2023-02-25T10:51:09.734Z,5.56
2023-02-25T10:53:37.370Z,4.90
2023-02-25T10:56:05.363Z,5.73
2023-02-25T10:58:38.134Z,5.62
2023-02-25T11:01:10.995Z,5.43
2023-02-25T11:03:46.654Z,5.74
2023-02-25T11:06:22.747Z,5.93
2023-02-25T11:08:52.210Z,6.12
2023-02-25T11:11:22.788Z,4.98
2023-02-25T11:14:03.164Z,5.50
2023-02-25T11:16:35.088Z,5.56
2023-02-25T11:19:11.531Z,5.85
2023-02-25T11:21:40.448Z,6.48
2023-02-25T11:24:15.562Z,6.22
2023-02-25T11:26:45.912Z,6.45
2023-02-25T11:29:20.453Z,6.77
2023-02-25T11:31:52.744Z,5.91
2023-02-25T11:34:23.707Z,5.43
2023-02-25T11:36:52.558Z,5.31
2023-02-25T11:39:22.694Z,5.69
2023-02-25T11:41:51.650Z,5.42
2023-02-25T11:44:29.973Z,5.61
2023-02-25T11:47:05.700Z,6.25
2023-02-25T11:49:58.596Z,6.51
2023-02-25T11:52:33.454Z,6.09
2023-02-25T11:55:15.123Z,5.84
2023-02-25T11:57:51.458Z,6.28
2023-02-25T12:00:25.966Z,5.73
2023-02-25T12:03:11.306Z,6.09
2023-02-25T12:05:52.505Z,5.78
2023-02-25T12:08:37.245Z,6.28
2023-02-25T12:11:27.170Z,6.50
2023-02-25T12:14:22.211Z,6.45
2023-02-25T12:17:38.715Z,6.71
2023-02-25T12:20:46.121Z,6.44
2023-02-25T12:23:45.730Z,6.77
2023-02-25T12:26:20.810Z,6.15
2023-02-25T12:29:05.071Z,6.43
2023-02-25T12:31:54.757Z,6.37
2023-02-25T12:34:56.898Z,6.21
2023-02-25T12:37:39.056Z,6.83
2023-02-25T12:40:30.382Z,6.51
2023-02-25T12:43:13.609Z,6.21
2023-02-25T12:45:52.238Z,6.41
2023-02-25T12:48:40.347Z,6.69
2023-02-25T12:51:29.357Z,6.00
2023-02-25T12:54:08.778Z,6.01
2023-02-25T12:56:59.302Z,6.44
2023-02-25T12:59:53.657Z,5.80
2023-02-25T13:02:37.612Z,6.17
2023-02-25T13:05:21.863Z,6.69
2023-02-25T13:08:18.821Z,6.44
2023-02-25T13:11:00.692Z,5.93
2023-02-25T13:13:57.395Z,6.79
2023-02-25T13:16:40.452Z,6.60
2023-02-25T13:19:24.695Z,6.16
2023-02-25T13:22:04.269Z,6.79
2023-02-25T13:24:46.527Z,6.56
2023-02-25T13:27:24.930Z,6.25
2023-02-25T13:30:23.122Z,6.48
2023-02-25T13:33:03.811Z,6.55
2023-02-25T13:35:39.844Z,6.59
2023-02-25T13:38:23.808Z,6.85
2023-02-25T13:41:05.342Z,6.61
2023-02-25T13:44:08.702Z,6.29
2023-02-25T13:46:57.536Z,6.69
2023-02-25T13:49:42.119Z,6.39
2023-02-25T13:52:27.686Z,6.72
2023-02-25T13:55:08.035Z,7.12
2023-02-25T13:57:48.459Z,7.10
2023-02-25T14:00:46.024Z,6.64
2023-02-25T14:03:38.646Z,6.71
2023-02-25T14:06:21.761Z,6.65
2023-02-25T14:09:07.812Z,6.74
2023-02-25T14:12:06.307Z,6.35
2023-02-25T14:15:11.089Z,6.88
2023-02-25T14:17:53.958Z,7.41
2023-02-25T14:20:39.058Z,7.07
2023-02-25T14:23:14.228Z,7.46
2023-02-25T14:25:55.712Z,7.52
2023-02-25T14:28:32.500Z,7.02
2023-02-25T14:31:14.161Z,6.83
2023-02-25T14:34:04.508Z,7.24
2023-02-25T14:37:00.823Z,6.89
2023-02-25T14:39:44.792Z,6.45
2023-02-25T14:42:29.221Z,7.02
2023-02-25T14:45:03.097Z,6.72
2023-02-25T14:47:36.892Z,7.00
2023-02-25T14:50:11.629Z,6.84
2023-02-25T14:52:59.178Z,6.81
2023-02-25T14:55:59.129Z,6.29
2023-02-25T14:58:39.761Z,5.96
2023-02-25T15:01:39.668Z,6.23
2023-02-25T15:04:25.058Z,6.43
2023-02-25T15:07:01.473Z,6.03
2023-02-25T15:10:08.787Z,6.69
2023-02-25T15:13:00.663Z,5.98
2023-02-25T15:15:47.190Z,6.58
2023-02-25T15:18:46.963Z,5.33
2023-02-25T15:21:37.109Z,5.71
2023-02-25T15:24:10.787Z,6.04
2023-02-25T15:26:45.242Z,5.70
2023-02-25T15:29:22.129Z,6.11
2023-02-25T15:32:17.862Z,6.12
2023-02-25T15:35:05.396Z,5.71
2023-02-25T15:37:37.160Z,5.65
2023-02-25T15:40:38.327Z,6.53
2023-02-25T15:43:38.544Z,6.69
2023-02-25T15:46:41.040Z,6.31
2023-02-25T15:49:20.996Z,5.57
2023-02-25T15:51:51.298Z,5.59
2023-02-25T15:54:50.218Z,4.54
2023-02-25T15:57:38.283Z,4.98
2023-02-25T16:01:01.383Z,5.45
2023-02-25T16:03:42.851Z,5.26
2023-02-25T16:06:22.006Z,5.90
2023-02-25T16:08:57.352Z,5.76
2023-02-25T16:11:34.717Z,5.70
2023-02-25T16:14:06.833Z,6.12
2023-02-25T16:16:36.426Z,5.94
2023-02-25T16:19:06.838Z,6.11
2023-02-25T16:21:41.978Z,6.34
2023-02-25T16:24:11.433Z,5.80
2023-02-25T16:26:56.355Z,6.39
2023-02-25T16:29:41.204Z,5.94
2023-02-25T16:32:21.104Z,6.01
2023-02-25T16:34:54.787Z,5.70
2023-02-25T16:37:30.327Z,5.26
2023-02-25T16:39:58.591Z,5.95
2023-02-25T16:42:27.947Z,6.24
2023-02-25T16:45:11.778Z,6.02
2023-02-25T16:47:42.197Z,5.50
2023-02-25T16:50:14.436Z,5.87
2023-02-25T16:52:48.211Z,6.22
2023-02-25T16:55:21.325Z,6.44
2023-02-25T16:58:04.057Z,6.48
2023-02-25T17:00:33.086Z,6.48
2023-02-25T17:03:02.411Z,6.26
2023-02-25T17:05:32.346Z,5.14
2023-02-25T17:08:02.030Z,5.22
2023-02-25T17:10:33.516Z,5.59
2023-02-25T17:13:05.175Z,5.55
2023-02-25T17:15:36.264Z,5.21
2023-02-25T17:18:09.838Z,5.19
2023-02-25T17:20:38.075Z,5.11
2023-02-25T17:23:09.912Z,5.11
2023-02-25T17:25:41.220Z,5.22
2023-02-25T17:28:21.544Z,5.30
2023-02-25T17:30:50.106Z,5.53
2023-02-25T17:33:26.970Z,5.03
2023-02-25T17:35:58.267Z,5.32
2023-02-25T17:38:28.888Z,5.28
2023-02-25T17:40:57.101Z,5.01
2023-02-25T17:43:33.378Z,5.26
2023-02-25T17:46:04.456Z,5.47
2023-02-25T17:48:35.110Z,5.42
2023-02-25T17:51:07.749Z,5.12
2023-02-25T17:53:41.523Z,5.61
2023-02-25T17:56:16.251Z,5.75
2023-02-25T17:58:46.352Z,5.47
2023-02-25T18:01:23.937Z,5.23
2023-02-25T18:03:52.898Z,5.01
2023-02-25T18:06:40.986Z,4.88
2023-02-25T18:09:29.293Z,4.86
2023-02-25T18:11:58.766Z,4.73
2023-02-25T18:14:34.251Z,4.83
2023-02-25T18:17:03.446Z,5.05
2023-02-25T18:19:38.142Z,4.69
2023-02-25T18:22:08.895Z,4.31
2023-02-25T18:24:38.804Z,4.62
2023-02-25T18:27:24.486Z,4.55
2023-02-25T18:29:53.793Z,4.86
2023-02-25T18:32:21.416Z,4.78
2023-02-25T18:34:49.039Z,4.39
2023-02-25T18:37:19.947Z,4.33
2023-02-25T18:39:48.858Z,4.79
2023-02-25T18:42:18.669Z,4.44
2023-02-25T18:44:47.609Z,4.90
2023-02-25T18:47:16.772Z,4.55
2023-02-25T18:49:45.774Z,4.30
2023-02-25T18:52:19.920Z,4.27
2023-02-25T18:54:47.962Z,4.27
2023-02-25T18:57:23.368Z,4.80
2023-02-25T18:59:51.217Z,4.24
2023-02-25T19:02:29.611Z,3.94
2023-02-25T19:04:57.317Z,4.61
2023-02-25T19:07:26.545Z,4.46
2023-02-25T19:09:55.768Z,4.60
2023-02-25T19:12:24.578Z,4.46
2023-02-25T19:14:57.733Z,4.55
2023-02-25T19:17:27.044Z,4.67
2023-02-25T19:19:54.729Z,4.56
2023-02-25T19:22:23.296Z,4.36
2023-02-25T19:24:51.346Z,4.59
2023-02-25T19:27:22.754Z,3.90
2023-02-25T19:29:52.637Z,3.84
2023-02-25T19:32:21.633Z,3.31
2023-02-25T19:34:51.135Z,4.02
2023-02-25T19:37:21.050Z,3.80
2023-02-25T19:39:48.921Z,3.39
2023-02-25T19:42:16.576Z,3.44
2023-02-25T19:44:44.156Z,3.77
2023-02-25T19:47:11.734Z,3.88
2023-02-25T19:49:39.318Z,4.16
2023-02-25T19:52:08.245Z,3.87
2023-02-25T19:54:35.812Z,4.35
2023-02-25T19:57:03.428Z,3.64
2023-02-25T19:59:31.796Z,3.80
2023-02-25T20:01:59.509Z,4.00
2023-02-25T20:04:27.133Z,4.10
2023-02-25T20:06:54.712Z,4.33
2023-02-25T20:09:23.731Z,4.60
2023-02-25T20:11:52.831Z,4.66
2023-02-25T20:14:20.703Z,4.64
2023-02-25T20:16:48.332Z,4.20
2023-02-25T20:19:15.958Z,4.17
2023-02-25T20:21:43.552Z,4.44
2023-02-25T20:24:11.258Z,4.38
2023-02-25T20:26:40.295Z,3.73
2023-02-25T20:29:07.897Z,3.22
2023-02-25T20:31:35.577Z,2.15
2023-02-25T20:34:05.658Z,3.00
2023-02-25T20:36:39.597Z,2.45
2023-02-25T20:39:27.951Z,2.70
2023-02-25T20:41:57.289Z,2.91
2023-02-25T20:44:25.019Z,2.94
2023-02-25T20:46:52.896Z,3.07
2023-02-25T20:49:21.186Z,2.76
2023-02-25T20:51:50.002Z,2.91
2023-02-25T20:54:19.351Z,2.88
2023-02-25T20:56:47.849Z,2.86
2023-02-25T20:59:17.926Z,3.21
2023-02-25T21:01:45.966Z,3.47
2023-02-25T21:04:14.239Z,3.60
2023-02-25T21:06:41.954Z,3.45
2023-02-25T21:09:10.249Z,3.21
2023-02-25T21:11:37.891Z,3.34
2023-02-25T21:14:09.064Z,2.69
2023-02-25T21:16:38.426Z,2.68
2023-02-25T21:19:06.975Z,3.00
2023-02-25T21:21:37.181Z,3.41
2023-02-25T21:24:05.575Z,3.95
2023-02-25T21:26:33.519Z,3.62
2023-02-25T21:29:01.235Z,3.71
2023-02-25T21:31:29.071Z,4.01
2023-02-25T21:33:59.742Z,2.99
2023-02-25T21:36:27.549Z,3.39
2023-02-25T21:38:55.379Z,3.20
2023-02-25T21:41:23.868Z,3.04
2023-02-25T21:43:53.237Z,3.18
2023-02-25T21:46:21.271Z,2.71
2023-02-25T21:48:50.581Z,3.08
2023-02-25T21:51:22.753Z,3.17
2023-02-25T21:53:54.878Z,3.53
2023-02-25T21:56:22.758Z,3.40
2023-02-25T21:58:54.481Z,3.12
2023-02-25T22:01:24.894Z,2.97
2023-02-25T22:03:52.526Z,3.10
2023-02-25T22:06:23.789Z,3.17
2023-02-25T22:08:51.935Z,3.33
2023-02-25T22:11:21.570Z,3.38
2023-02-25T22:13:50.505Z,3.23
2023-02-25T22:16:18.443Z,3.21
2023-02-25T22:18:46.521Z,3.37
2023-02-25T22:21:16.924Z,3.23
2023-02-25T22:23:48.231Z,2.90
2023-02-25T22:26:17.928Z,3.32
2023-02-25T22:28:46.363Z,3.12
2023-02-25T22:31:16.049Z,3.32
2023-02-25T22:33:44.751Z,3.03
2023-02-25T22:36:13.947Z,2.44
2023-02-25T22:38:43.428Z,2.24
2023-02-25T22:41:15.344Z,2.54
2023-02-25T22:43:43.468Z,2.96
2023-02-25T22:46:13.059Z,2.55
2023-02-25T22:48:42.717Z,2.64
2023-02-25T22:51:11.492Z,2.76
2023-02-25T22:53:40.409Z,2.47
2023-02-25T22:56:10.240Z,3.03
2023-02-25T22:58:40.671Z,2.48
2023-02-25T23:01:09.100Z,2.30
2023-02-25T23:03:38.383Z,2.97
2023-02-25T23:06:06.983Z,3.22
2023-02-25T23:08:35.572Z,3.23
2023-02-25T23:11:11.147Z,3.34
2023-02-25T23:13:46.012Z,2.53
2023-02-25T23:16:14.721Z,3.01
2023-02-25T23:18:42.487Z,2.98
2023-02-25T23:21:15.668Z,2.53
2023-02-25T23:23:44.015Z,3.14
2023-02-25T23:26:13.729Z,2.54
2023-02-25T23:28:43.210Z,2.39
2023-02-25T23:31:19.213Z,2.36
2023-02-25T23:33:47.030Z,2.52
2023-02-25T23:36:14.867Z,3.03
2023-02-25T23:38:42.487Z,3.19
2023-02-25T23:41:10.279Z,3.04
2023-02-25T23:43:37.914Z,2.99
2023-02-25T23:46:07.879Z,2.65
2023-02-25T23:48:35.522Z,3.32
2023-02-25T23:51:06.761Z,2.73
2023-02-25T23:53:34.724Z,3.13
2023-02-25T23:56:05.935Z,3.07
2023-02-25T23:58:33.887Z,3.22
